createdAt,value
2022-10-18T00:00:58.706Z,75.32
2022-10-18T00:03:26.171Z,81.32
2022-10-18T00:05:53.243Z,72.43
2022-10-18T00:08:21.110Z,79.82
2022-10-18T00:10:49.018Z,76.97
2022-10-18T00:13:16.200Z,83.90
2022-10-18T00:15:51.807Z,82.38
2022-10-18T00:18:19.827Z,87.55
2022-10-18T00:21:00.322Z,85.85
2022-10-18T00:23:30.271Z,78.45
2022-10-18T00:26:14.999Z,80.95
2022-10-18T00:28:43.510Z,71.05
2022-10-18T00:31:22.238Z,71.40
2022-10-18T00:33:56.451Z,70.97
2022-10-18T00:36:24.677Z,76.40
2022-10-18T00:38:52.256Z,77.05
2022-10-18T00:41:26.841Z,74.40
2022-10-18T00:44:04.350Z,79.50
2022-10-18T00:46:35.295Z,77.70
2022-10-18T00:49:17.618Z,77.68
2022-10-18T00:52:00.172Z,75.85
2022-10-18T00:54:30.284Z,75.43
2022-10-18T00:56:57.513Z,73.45
2022-10-18T00:59:26.043Z,88.68
2022-10-18T01:01:53.382Z,79.50
2022-10-18T01:04:21.587Z,77.40
2022-10-18T01:07:57.397Z,76.28
2022-10-18T01:11:10.127Z,80.55
2022-10-18T01:13:44.313Z,84.78
2022-10-18T01:16:46.071Z,79.93
2022-10-18T01:19:43.944Z,75.05
2022-10-18T01:22:30.935Z,70.10
2022-10-18T01:25:18.808Z,79.43
2022-10-18T01:28:16.510Z,79.35
2022-10-18T01:30:52.893Z,74.53
2022-10-18T01:34:03.082Z,73.30
2022-10-18T01:36:36.697Z,78.32
2022-10-18T01:39:09.695Z,70.43
2022-10-18T01:41:40.118Z,83.97
2022-10-18T01:44:11.600Z,71.53
2022-10-18T01:46:41.564Z,71.60
2022-10-18T01:49:08.758Z,70.85
2022-10-18T01:51:35.859Z,75.05
2022-10-18T01:54:03.212Z,74.25
2022-10-18T01:56:46.210Z,74.15
2022-10-18T01:59:32.268Z,70.63
2022-10-18T02:02:16.312Z,73.95
2022-10-18T02:05:03.534Z,65.82
2022-10-18T02:08:22.438Z,70.00
2022-10-18T02:10:58.695Z,69.00
2022-10-18T02:13:30.495Z,73.70
2022-10-18T02:16:03.799Z,68.67
2022-10-18T02:18:42.328Z,69.22
2022-10-18T02:21:13.604Z,67.18
2022-10-18T02:23:40.557Z,70.03
2022-10-18T02:26:07.741Z,65.90
2022-10-18T02:28:34.804Z,65.85
2022-10-18T02:31:21.786Z,68.88
2022-10-18T02:34:11.802Z,66.45
2022-10-18T02:36:46.197Z,63.20
2022-10-18T02:39:18.639Z,69.25
2022-10-18T02:41:45.652Z,63.70
2022-10-18T02:44:12.999Z,75.95
2022-10-18T02:46:40.558Z,67.40
2022-10-18T02:49:07.504Z,69.60
2022-10-18T02:51:34.714Z,74.80
2022-10-18T02:54:01.687Z,66.70
2022-10-18T02:56:28.604Z,67.38
2022-10-18T02:58:55.674Z,65.60
2022-10-18T03:01:22.651Z,71.80
2022-10-18T03:03:49.925Z,75.43
2022-10-18T03:06:17.565Z,70.53
2022-10-18T03:08:44.846Z,72.78
2022-10-18T03:11:11.792Z,66.47
2022-10-18T03:13:38.683Z,67.55
2022-10-18T03:16:05.879Z,71.55
2022-10-18T03:18:33.036Z,66.20
2022-10-18T03:21:05.940Z,64.85
2022-10-18T03:23:33.900Z,57.58
2022-10-18T03:26:01.439Z,64.38
2022-10-18T03:28:28.792Z,65.65
2022-10-18T03:31:04.040Z,62.25
2022-10-18T03:33:32.648Z,60.90
2022-10-18T03:36:00.325Z,59.58
2022-10-18T03:38:27.587Z,62.70
2022-10-18T03:40:54.507Z,62.15
2022-10-18T03:43:21.737Z,59.90
2022-10-18T03:45:48.662Z,53.60
2022-10-18T03:48:15.712Z,58.42
2022-10-18T03:50:43.553Z,59.78
2022-10-18T03:53:10.592Z,60.42
2022-10-18T03:55:38.434Z,67.10
2022-10-18T03:58:05.745Z,66.50
2022-10-18T04:00:33.151Z,59.10
2022-10-18T04:03:00.094Z,66.78
2022-10-18T04:05:28.542Z,61.05
2022-10-18T04:07:55.508Z,60.55
2022-10-18T04:10:22.718Z,57.50
2022-10-18T04:12:49.636Z,61.90
2022-10-18T04:15:16.634Z,65.97
2022-10-18T04:17:43.544Z,65.13
2022-10-18T04:20:10.992Z,64.50
2022-10-18T04:22:38.164Z,65.95
2022-10-18T04:25:05.883Z,66.38
2022-10-18T04:27:33.008Z,65.82
2022-10-18T04:30:00.060Z,64.88
2022-10-18T04:32:29.052Z,71.65
2022-10-18T04:34:55.965Z,65.85
2022-10-18T04:37:23.238Z,64.40
2022-10-18T04:39:53.443Z,68.25
2022-10-18T04:42:21.959Z,70.55
2022-10-18T04:44:49.494Z,68.18
2022-10-18T04:47:17.456Z,78.00
2022-10-18T04:49:44.687Z,73.53
2022-10-18T04:52:13.708Z,67.93
2022-10-18T04:54:41.100Z,71.40
2022-10-18T04:57:08.255Z,75.65
2022-10-18T04:59:35.479Z,72.63
2022-10-18T05:04:29.524Z,83.07
2022-10-18T05:06:56.537Z,78.25
2022-10-18T05:09:24.784Z,80.45
2022-10-18T05:11:51.814Z,85.10
2022-10-18T05:14:19.081Z,81.60
2022-10-18T05:16:46.224Z,86.93
2022-10-18T05:19:13.182Z,82.65
2022-10-18T05:21:40.827Z,92.57
2022-10-18T05:24:08.173Z,78.68
2022-10-18T05:26:35.121Z,80.30
2022-10-18T05:29:03.382Z,76.35
2022-10-18T05:31:30.398Z,76.90
2022-10-18T05:33:57.479Z,80.13
2022-10-18T05:36:26.122Z,83.80
2022-10-18T05:38:53.720Z,86.60
2022-10-18T05:41:20.706Z,85.22
2022-10-18T05:43:47.707Z,76.03
2022-10-18T05:46:16.038Z,82.88
2022-10-18T05:48:44.693Z,79.28
2022-10-18T05:51:12.041Z,80.18
2022-10-18T05:53:39.261Z,73.03
2022-10-18T05:56:07.540Z,78.10
2022-10-18T05:58:35.247Z,82.85
2022-10-18T06:01:03.322Z,74.47
2022-10-18T06:03:30.943Z,76.55
2022-10-18T06:06:08.635Z,79.45
2022-10-18T06:08:37.275Z,79.28
2022-10-18T06:11:08.579Z,72.20
2022-10-18T06:13:44.140Z,74.60
2022-10-18T06:16:12.726Z,83.50
2022-10-18T06:18:40.366Z,75.43
2022-10-18T06:21:08.183Z,81.57
2022-10-18T06:23:35.863Z,87.00
2022-10-18T06:26:07.105Z,84.93
2022-10-18T06:28:36.303Z,87.18
2022-10-18T06:31:05.062Z,95.00
2022-10-18T06:33:33.603Z,100.10
2022-10-18T06:36:15.096Z,112.07
2022-10-18T06:38:42.177Z,103.70
2022-10-18T06:41:10.114Z,112.00
2022-10-18T06:43:37.247Z,109.45
2022-10-18T06:46:06.982Z,110.50
2022-10-18T06:48:39.391Z,117.50
2022-10-18T06:51:08.154Z,113.25
2022-10-18T06:53:44.322Z,114.63
2022-10-18T06:56:15.751Z,111.13
2022-10-18T06:58:42.739Z,120.90
2022-10-18T07:01:13.731Z,113.60
2022-10-18T07:03:40.801Z,125.80
2022-10-18T07:06:12.409Z,108.55
2022-10-18T07:08:40.160Z,121.00
2022-10-18T07:11:08.906Z,114.85
2022-10-18T07:13:35.864Z,127.28
2022-10-18T07:16:18.162Z,117.32
2022-10-18T07:18:51.192Z,116.15
2022-10-18T07:21:24.165Z,117.72
2022-10-18T07:23:52.077Z,115.38
2022-10-18T07:26:27.362Z,122.35
2022-10-18T07:29:01.826Z,114.00
2022-10-18T07:31:30.137Z,119.57
2022-10-18T07:33:57.793Z,122.95
2022-10-18T07:36:25.667Z,126.10
2022-10-18T07:38:53.300Z,113.50
2022-10-18T07:41:21.646Z,114.72
2022-10-18T07:43:51.607Z,121.22
2022-10-18T07:46:20.683Z,113.15
2022-10-18T07:48:48.248Z,109.18
2022-10-18T07:51:15.901Z,102.28
2022-10-18T07:53:42.777Z,105.00
2022-10-18T07:56:16.855Z,100.80
2022-10-18T07:58:55.822Z,95.65
2022-10-18T08:01:24.632Z,95.53
2022-10-18T08:03:52.641Z,97.78
2022-10-18T08:06:22.036Z,87.88
2022-10-18T08:08:49.540Z,91.35
2022-10-18T08:11:21.337Z,88.25
2022-10-18T08:13:48.696Z,93.38
2022-10-18T08:16:23.678Z,100.85
2022-10-18T08:18:51.126Z,86.50
2022-10-18T08:21:20.562Z,85.72
2022-10-18T08:23:48.847Z,85.30
2022-10-18T08:26:21.472Z,88.55
2022-10-18T08:29:03.631Z,84.18
2022-10-18T08:31:37.434Z,89.50
2022-10-18T08:34:04.711Z,86.65
2022-10-18T08:36:31.816Z,79.40
2022-10-18T08:38:58.979Z,80.35
2022-10-18T08:41:38.499Z,82.65
2022-10-18T08:44:24.269Z,79.50
2022-10-18T08:47:11.653Z,76.18
2022-10-18T08:49:53.546Z,77.78
2022-10-18T08:52:34.802Z,73.93
2022-10-18T08:55:12.786Z,67.70
2022-10-18T08:57:40.314Z,77.47
2022-10-18T09:00:19.250Z,71.07
2022-10-18T09:03:07.560Z,70.10
2022-10-18T09:05:40.205Z,75.43
2022-10-18T09:08:49.473Z,76.47
2022-10-18T09:11:24.265Z,75.57
2022-10-18T09:14:37.620Z,70.30
2022-10-18T09:17:46.450Z,73.82
2022-10-18T09:20:29.707Z,72.60
2022-10-18T09:23:05.284Z,75.43
2022-10-18T09:26:02.553Z,70.57
2022-10-18T09:28:48.978Z,72.35
2022-10-18T09:31:44.799Z,71.25
2022-10-18T09:34:26.175Z,69.38
2022-10-18T09:36:54.663Z,76.05
2022-10-18T09:39:37.484Z,67.43
2022-10-18T09:42:15.192Z,74.05
2022-10-18T09:44:51.707Z,72.78
2022-10-18T09:47:41.537Z,70.07
2022-10-18T09:50:25.850Z,69.50
2022-10-18T09:55:36.634Z,67.72
2022-10-18T09:58:07.182Z,65.93
2022-10-18T10:00:50.123Z,74.53
2022-10-18T10:03:17.312Z,67.15
2022-10-18T10:05:44.756Z,63.40
2022-10-18T10:08:12.114Z,71.22
2022-10-18T10:10:42.814Z,64.03
2022-10-18T10:13:27.791Z,58.80
2022-10-18T10:16:01.448Z,63.60
2022-10-18T10:18:34.977Z,64.50
2022-10-18T10:21:15.032Z,61.35
2022-10-18T10:23:58.111Z,64.95
2022-10-18T10:26:36.708Z,58.15
2022-10-18T10:29:03.840Z,65.68
2022-10-18T10:31:31.869Z,59.97
2022-10-18T10:34:27.748Z,60.53
2022-10-18T10:36:55.427Z,57.10
2022-10-18T10:39:24.663Z,48.38
2022-10-18T10:41:55.035Z,53.28
2022-10-18T10:44:32.094Z,51.17
2022-10-18T10:47:00.154Z,53.40
2022-10-18T10:49:44.238Z,54.28
2022-10-18T10:52:28.589Z,46.80
2022-10-18T10:57:47.998Z,52.03
2022-10-18T11:00:38.299Z,46.80
2022-10-18T11:03:27.813Z,50.00
2022-10-18T11:06:02.418Z,49.08
2022-10-18T11:08:40.644Z,50.35
2022-10-18T11:11:27.976Z,55.17
2022-10-18T11:14:31.834Z,57.47
2022-10-18T11:17:17.987Z,56.83
2022-10-18T11:20:07.842Z,54.78
2022-10-18T11:23:00.632Z,53.63
2022-10-18T11:26:12.840Z,52.45
2022-10-18T11:29:07.950Z,50.03
2022-10-18T11:31:56.650Z,52.95
2022-10-18T11:34:35.731Z,52.70
2022-10-18T11:37:43.111Z,58.85
2022-10-18T11:40:40.901Z,59.53
2022-10-18T11:44:02.953Z,55.97
2022-10-18T11:47:02.541Z,56.78
2022-10-18T11:50:03.294Z,58.78
2022-10-18T11:52:53.956Z,55.88
2022-10-18T11:59:17.163Z,54.85
2022-10-18T12:02:16.433Z,57.00
2022-10-18T12:08:15.393Z,55.08
2022-10-18T12:11:06.613Z,54.65
2022-10-18T12:13:46.814Z,59.83
2022-10-18T12:16:14.659Z,59.45
2022-10-18T12:18:59.516Z,58.83
2022-10-18T12:21:32.215Z,52.28
2022-10-18T12:24:06.983Z,50.33
2022-10-18T12:26:35.565Z,53.97
2022-10-18T12:29:31.727Z,51.78
2022-10-18T12:32:23.587Z,47.65
2022-10-18T12:35:17.846Z,46.95
2022-10-18T12:37:50.888Z,47.95
2022-10-18T12:40:34.347Z,45.80
2022-10-18T12:43:10.353Z,41.75
2022-10-18T12:45:57.679Z,41.63
2022-10-18T12:48:43.752Z,40.03
2022-10-18T12:51:22.336Z,37.17
2022-10-18T12:53:53.139Z,40.67
2022-10-18T12:56:44.694Z,42.05
2022-10-18T12:59:14.667Z,37.80
2022-10-18T13:01:51.218Z,37.03
2022-10-18T13:04:27.574Z,32.88
2022-10-18T13:06:57.757Z,36.55
2022-10-18T13:09:28.938Z,32.53
2022-10-18T13:12:16.151Z,34.25
2022-10-18T13:15:24.171Z,31.98
2022-10-18T13:18:04.947Z,32.92
2022-10-18T13:20:44.757Z,33.75
2022-10-18T13:23:38.682Z,32.55
2022-10-18T13:26:43.667Z,36.92
2022-10-18T13:29:41.244Z,34.90
2022-10-18T13:32:34.106Z,37.45
2022-10-18T13:35:01.450Z,33.60
2022-10-18T13:37:30.797Z,28.33
2022-10-18T13:40:26.413Z,31.90
2022-10-18T13:42:54.027Z,31.38
2022-10-18T13:45:33.759Z,30.42
2022-10-18T13:48:32.021Z,35.08
2022-10-18T13:51:32.544Z,30.40
2022-10-18T13:54:16.932Z,29.30
2022-10-18T13:57:13.394Z,31.77
2022-10-18T14:00:29.279Z,29.60
2022-10-18T14:03:51.803Z,39.33
2022-10-18T14:06:36.313Z,34.80
2022-10-18T14:09:45.357Z,29.65
2022-10-18T14:12:38.740Z,39.88
2022-10-18T14:15:23.879Z,28.80
2022-10-18T14:17:59.168Z,28.17
2022-10-18T14:20:49.099Z,29.58
2022-10-18T14:23:24.832Z,30.33
2022-10-18T14:26:01.725Z,26.20
2022-10-18T14:28:48.115Z,27.92
2022-10-18T14:31:18.619Z,32.13
2022-10-18T14:33:58.530Z,26.83
2022-10-18T14:36:46.224Z,30.27
2022-10-18T14:39:28.277Z,33.33
2022-10-18T14:41:58.160Z,32.95
2022-10-18T14:44:31.774Z,28.25
2022-10-18T14:47:12.635Z,29.27
2022-10-18T14:49:45.045Z,31.00
2022-10-18T14:52:35.680Z,26.33
2022-10-18T14:55:05.390Z,25.58
2022-10-18T14:57:36.626Z,30.90
2022-10-18T15:02:56.469Z,26.63
2022-10-18T15:05:26.971Z,25.20
2022-10-18T15:07:55.109Z,27.90
2022-10-18T15:10:34.067Z,29.17
2022-10-18T15:13:10.289Z,26.00
2022-10-18T15:15:39.761Z,27.90
2022-10-18T15:18:08.355Z,27.77
2022-10-18T15:20:42.980Z,27.65
2022-10-18T15:23:28.508Z,26.23
2022-10-18T15:26:09.693Z,30.20
2022-10-18T15:28:51.185Z,29.85
2022-10-18T15:31:32.496Z,31.42
2022-10-18T15:34:24.672Z,24.17
2022-10-18T15:36:54.441Z,26.13
2022-10-18T15:39:31.257Z,30.10
2022-10-18T15:42:01.201Z,32.38
2022-10-18T15:44:50.864Z,26.35
2022-10-18T15:47:21.041Z,26.40
2022-10-18T15:49:58.306Z,26.17
2022-10-18T15:52:37.726Z,29.42
2022-10-18T15:55:29.697Z,31.60
2022-10-18T15:58:16.963Z,33.83
2022-10-18T16:00:46.065Z,31.35
2022-10-18T16:03:13.797Z,32.10
2022-10-18T16:05:41.321Z,30.40
2022-10-18T16:08:23.941Z,29.60
2022-10-18T16:10:51.950Z,31.88
2022-10-18T16:13:19.063Z,31.88
2022-10-18T16:15:46.418Z,29.90
2022-10-18T16:18:17.903Z,29.25
2022-10-18T16:20:46.683Z,26.83
2022-10-18T16:23:21.192Z,29.95
2022-10-18T16:25:48.740Z,28.65
2022-10-18T16:28:20.058Z,29.52
2022-10-18T16:30:55.342Z,28.73
2022-10-18T16:33:23.499Z,33.47
2022-10-18T16:35:51.002Z,34.78
2022-10-18T16:38:32.800Z,28.98
2022-10-18T16:41:07.587Z,30.92
2022-10-18T16:43:35.472Z,30.92
2022-10-18T16:46:04.573Z,30.83
2022-10-18T16:48:31.932Z,31.65
2022-10-18T16:50:59.482Z,32.08
2022-10-18T16:53:27.989Z,32.15
2022-10-18T16:55:59.179Z,32.10
2022-10-18T16:58:28.895Z,33.97
2022-10-18T17:00:57.660Z,32.83
2022-10-18T17:03:26.755Z,34.00
2022-10-18T17:05:54.359Z,38.88
2022-10-18T17:08:25.751Z,33.92
2022-10-18T17:10:57.284Z,37.10
2022-10-18T17:13:26.140Z,37.58
2022-10-18T17:15:53.896Z,30.52
2022-10-18T17:18:26.436Z,37.38
2022-10-18T17:20:54.396Z,33.00
2022-10-18T17:23:21.896Z,34.58
2022-10-18T17:26:04.639Z,32.20
2022-10-18T17:28:34.483Z,35.35
2022-10-18T17:31:01.736Z,40.65
2022-10-18T17:33:28.764Z,37.65
2022-10-18T17:35:55.750Z,42.53
2022-10-18T17:38:22.702Z,39.95
2022-10-18T17:40:52.675Z,37.20
2022-10-18T17:43:20.107Z,44.10
2022-10-18T17:45:55.450Z,45.78
2022-10-18T17:48:24.517Z,46.13
2022-10-18T17:50:51.755Z,47.80
2022-10-18T17:53:22.859Z,83.95
2022-10-18T17:55:50.178Z,59.08
2022-10-18T17:58:17.209Z,41.53
2022-10-18T18:00:44.148Z,49.63
2022-10-18T18:03:11.608Z,56.45
2022-10-18T18:05:39.011Z,48.53
2022-10-18T18:08:06.134Z,52.25
2022-10-18T18:10:34.653Z,50.33
2022-10-18T18:13:02.753Z,49.00
2022-10-18T18:15:29.714Z,52.30
2022-10-18T18:17:57.883Z,43.20
2022-10-18T18:20:26.429Z,44.17
2022-10-18T18:22:53.409Z,46.20
2022-10-18T18:25:20.456Z,44.15
2022-10-18T18:27:47.498Z,50.47
2022-10-18T18:30:17.798Z,52.03
2022-10-18T18:32:44.977Z,58.88
2022-10-18T18:35:12.062Z,53.75
2022-10-18T18:37:39.099Z,55.80
2022-10-18T18:40:06.859Z,58.90
2022-10-18T18:42:34.091Z,57.40
2022-10-18T18:45:02.313Z,60.05
2022-10-18T18:47:29.308Z,57.67
2022-10-18T18:49:56.324Z,51.40
2022-10-18T18:52:23.268Z,51.17
2022-10-18T18:54:52.038Z,55.75
2022-10-18T18:57:19.942Z,55.30
2022-10-18T18:59:46.913Z,51.80
2022-10-18T19:02:13.847Z,53.05
2022-10-18T19:04:41.553Z,59.50
2022-10-18T19:07:08.524Z,65.90
2022-10-18T19:09:38.264Z,80.45
2022-10-18T19:12:05.802Z,96.65
2022-10-18T19:14:32.676Z,97.25
2022-10-18T19:17:01.175Z,91.68
2022-10-18T19:19:31.668Z,72.22
2022-10-18T19:22:03.635Z,63.63
2022-10-18T19:24:32.072Z,61.28
2022-10-18T19:27:04.835Z,62.13
2022-10-18T19:29:36.966Z,60.13
2022-10-18T19:32:07.823Z,61.40
2022-10-18T19:34:35.348Z,63.40
2022-10-18T19:37:02.324Z,57.03
2022-10-18T19:39:34.770Z,67.57
2022-10-18T19:42:06.022Z,64.53
2022-10-18T19:44:36.001Z,61.10
2022-10-18T19:47:05.810Z,68.55
2022-10-18T19:49:33.455Z,64.75
2022-10-18T19:52:00.549Z,63.17
2022-10-18T19:54:28.457Z,67.05
2022-10-18T19:56:55.686Z,77.15
2022-10-18T19:59:24.122Z,65.20
2022-10-18T20:01:51.282Z,67.32
2022-10-18T20:04:18.392Z,61.60
2022-10-18T20:06:45.717Z,53.80
2022-10-18T20:09:16.270Z,51.47
2022-10-18T20:11:46.471Z,50.08
2022-10-18T20:14:13.393Z,57.30
2022-10-18T20:16:40.244Z,56.78
2022-10-18T20:19:07.738Z,58.67
2022-10-18T20:21:36.418Z,54.95
2022-10-18T20:24:05.927Z,59.05
2022-10-18T20:26:34.610Z,57.60
2022-10-18T20:29:02.026Z,58.88
2022-10-18T20:31:32.378Z,53.83
2022-10-18T20:34:03.213Z,59.33
2022-10-18T20:36:32.108Z,60.90
2022-10-18T20:39:00.349Z,52.08
2022-10-18T20:41:34.750Z,52.53
2022-10-18T20:44:07.079Z,55.53
2022-10-18T20:46:37.174Z,52.22
2022-10-18T20:49:06.587Z,57.70
2022-10-18T20:51:34.562Z,55.53
2022-10-18T20:56:35.373Z,73.50
2022-10-18T20:59:06.157Z,64.32
2022-10-18T21:01:35.037Z,63.80
2022-10-18T21:04:08.526Z,64.85
2022-10-18T21:06:40.324Z,73.95
2022-10-18T21:09:11.745Z,67.82
2022-10-18T21:11:41.701Z,62.42
2022-10-18T21:14:16.118Z,65.55
2022-10-18T21:16:44.273Z,65.88
2022-10-18T21:19:27.027Z,68.90
2022-10-18T21:21:57.164Z,60.70
2022-10-18T21:24:25.800Z,65.97
2022-10-18T21:26:53.759Z,68.97
2022-10-18T21:29:22.610Z,75.75
2022-10-18T21:31:54.110Z,68.03
2022-10-18T21:34:21.597Z,66.53
2022-10-18T21:36:49.281Z,73.78
2022-10-18T21:39:21.090Z,68.93
2022-10-18T21:41:49.277Z,72.43
2022-10-18T21:44:18.162Z,67.25
2022-10-18T21:46:46.843Z,70.28
2022-10-18T21:49:14.925Z,68.47
2022-10-18T21:51:42.528Z,73.15
2022-10-18T21:54:15.668Z,69.88
2022-10-18T21:56:43.608Z,73.28
2022-10-18T21:59:14.460Z,66.32
2022-10-18T22:01:43.664Z,71.28
2022-10-18T22:04:25.361Z,74.03
2022-10-18T22:06:52.620Z,60.63
2022-10-18T22:09:21.358Z,66.63
2022-10-18T22:11:52.758Z,69.22
2022-10-18T22:14:20.285Z,66.57
2022-10-18T22:16:47.361Z,70.32
2022-10-18T22:19:14.529Z,68.28
2022-10-18T22:21:41.841Z,65.13
2022-10-18T22:24:10.137Z,70.82
2022-10-18T22:26:40.920Z,70.05
2022-10-18T22:29:18.866Z,70.35
2022-10-18T22:31:53.680Z,71.07
2022-10-18T22:34:29.137Z,60.58
2022-10-18T22:36:56.306Z,61.17
2022-10-18T22:39:24.570Z,68.47
2022-10-18T22:41:55.758Z,66.03
2022-10-18T22:44:23.228Z,66.00
2022-10-18T22:46:50.141Z,59.20
2022-10-18T22:49:17.121Z,66.70
2022-10-18T22:51:44.148Z,59.97
2022-10-18T22:54:11.249Z,64.75
2022-10-18T22:56:38.388Z,77.57
2022-10-18T22:59:05.669Z,67.68
2022-10-18T23:01:32.748Z,65.50
2022-10-18T23:04:01.193Z,66.75
2022-10-18T23:06:37.171Z,64.75
2022-10-18T23:09:07.979Z,65.50
2022-10-18T23:11:36.465Z,70.45
2022-10-18T23:14:05.884Z,70.75
2022-10-18T23:16:33.465Z,71.75
2022-10-18T23:19:00.456Z,67.82
2022-10-18T23:21:48.123Z,71.80
2022-10-18T23:24:15.152Z,71.93
2022-10-18T23:26:42.086Z,67.18
2022-10-18T23:29:10.219Z,67.63
2022-10-18T23:31:39.099Z,67.68
2022-10-18T23:34:06.466Z,68.25
2022-10-18T23:36:33.938Z,63.25
2022-10-18T23:39:01.516Z,70.65
2022-10-18T23:41:28.503Z,73.63
2022-10-18T23:43:56.154Z,68.03
2022-10-18T23:46:23.570Z,61.08
2022-10-18T23:48:50.998Z,59.40
2022-10-18T23:51:18.639Z,64.07
2022-10-18T23:53:45.872Z,66.70
2022-10-18T23:56:15.745Z,63.97
2022-10-18T23:58:44.235Z,68.97
